sensor_id;sensor_type;location;lat;lon;timestamp;P1;durP1;ratioP1;P2;durP2;ratioP2
19358;SDS011;9815;52.334;20.890;2023-03-23T00:01:48;42.97;;;21.53;;
19358;SDS011;9815;52.334;20.890;2023-03-23T00:04:15;42.63;;;21.27;;
19358;SDS011;9815;52.334;20.890;2023-03-23T00:06:44;45.03;;;21.47;;
19358;SDS011;9815;52.334;20.890;2023-03-23T00:09:11;43.70;;;20.93;;
19358;SDS011;9815;52.334;20.890;2023-03-23T00:11:40;44.87;;;21.80;;
19358;SDS011;9815;52.334;20.890;2023-03-23T00:14:08;44.23;;;20.67;;
19358;SDS011;9815;52.334;20.890;2023-03-23T00:16:38;38.40;;;20.50;;
19358;SDS011;9815;52.334;20.890;2023-03-23T00:19:08;39.83;;;20.33;;
19358;SDS011;9815;52.334;20.890;2023-03-23T00:21:38;42.70;;;20.70;;
19358;SDS011;9815;52.334;20.890;2023-03-23T00:24:08;43.43;;;21.27;;
19358;SDS011;9815;52.334;20.890;2023-03-23T00:26:37;39.97;;;20.60;;
19358;SDS011;9815;52.334;20.890;2023-03-23T00:29:06;44.50;;;21.70;;
19358;SDS011;9815;52.334;20.890;2023-03-23T00:31:38;40.57;;;20.80;;
19358;SDS011;9815;52.334;20.890;2023-03-23T00:34:06;45.17;;;21.37;;
19358;SDS011;9815;52.334;20.890;2023-03-23T00:36:33;43.07;;;21.27;;
19358;SDS011;9815;52.334;20.890;2023-03-23T00:39:12;42.70;;;21.83;;
19358;SDS011;9815;52.334;20.890;2023-03-23T00:41:41;44.23;;;21.30;;
19358;SDS011;9815;52.334;20.890;2023-03-23T00:44:09;43.60;;;20.83;;
19358;SDS011;9815;52.334;20.890;2023-03-23T00:46:42;42.23;;;20.53;;
19358;SDS011;9815;52.334;20.890;2023-03-23T00:49:11;43.53;;;21.33;;
19358;SDS011;9815;52.334;20.890;2023-03-23T00:51:39;41.70;;;19.90;;
19358;SDS011;9815;52.334;20.890;2023-03-23T00:54:06;43.57;;;20.50;;
19358;SDS011;9815;52.334;20.890;2023-03-23T00:56:35;41.07;;;20.37;;
19358;SDS011;9815;52.334;20.890;2023-03-23T00:59:04;40.43;;;19.57;;
19358;SDS011;9815;52.334;20.890;2023-03-23T01:01:31;42.30;;;20.03;;
19358;SDS011;9815;52.334;20.890;2023-03-23T01:03:59;38.67;;;19.17;;
19358;SDS011;9815;52.334;20.890;2023-03-23T01:06:30;38.07;;;18.73;;
19358;SDS011;9815;52.334;20.890;2023-03-23T01:08:58;38.20;;;19.00;;
19358;SDS011;9815;52.334;20.890;2023-03-23T01:11:25;36.27;;;18.90;;
19358;SDS011;9815;52.334;20.890;2023-03-23T01:13:54;39.23;;;19.67;;
19358;SDS011;9815;52.334;20.890;2023-03-23T01:16:21;38.60;;;19.37;;
19358;SDS011;9815;52.334;20.890;2023-03-23T01:18:48;36.07;;;19.27;;
19358;SDS011;9815;52.334;20.890;2023-03-23T01:21:16;38.37;;;19.23;;
19358;SDS011;9815;52.334;20.890;2023-03-23T01:23:45;40.43;;;19.50;;
19358;SDS011;9815;52.334;20.890;2023-03-23T01:26:13;41.30;;;19.33;;
19358;SDS011;9815;52.334;20.890;2023-03-23T01:28:41;34.77;;;18.97;;
19358;SDS011;9815;52.334;20.890;2023-03-23T01:31:12;37.17;;;18.17;;
19358;SDS011;9815;52.334;20.890;2023-03-23T01:33:42;37.20;;;19.43;;
19358;SDS011;9815;52.334;20.890;2023-03-23T01:36:11;38.70;;;19.80;;
19358;SDS011;9815;52.334;20.890;2023-03-23T01:38:40;43.90;;;19.20;;
19358;SDS011;9815;52.334;20.890;2023-03-23T01:41:09;36.40;;;18.97;;
19358;SDS011;9815;52.334;20.890;2023-03-23T01:43:53;39.63;;;19.33;;
19358;SDS011;9815;52.334;20.890;2023-03-23T01:46:23;33.13;;;18.10;;
19358;SDS011;9815;52.334;20.890;2023-03-23T01:48:52;40.23;;;18.07;;
19358;SDS011;9815;52.334;20.890;2023-03-23T01:51:19;42.57;;;19.70;;
19358;SDS011;9815;52.334;20.890;2023-03-23T01:53:50;41.00;;;19.80;;
19358;SDS011;9815;52.334;20.890;2023-03-23T01:56:21;39.57;;;18.83;;
19358;SDS011;9815;52.334;20.890;2023-03-23T01:58:56;34.57;;;17.73;;
19358;SDS011;9815;52.334;20.890;2023-03-23T02:01:25;36.47;;;17.73;;
19358;SDS011;9815;52.334;20.890;2023-03-23T02:03:54;36.30;;;18.40;;
19358;SDS011;9815;52.334;20.890;2023-03-23T02:06:23;35.90;;;18.17;;
19358;SDS011;9815;52.334;20.890;2023-03-23T02:09:02;34.87;;;17.87;;
19358;SDS011;9815;52.334;20.890;2023-03-23T02:11:31;32.33;;;17.50;;
19358;SDS011;9815;52.334;20.890;2023-03-23T02:13:59;32.60;;;17.70;;
19358;SDS011;9815;52.334;20.890;2023-03-23T02:16:31;32.63;;;17.43;;
19358;SDS011;9815;52.334;20.890;2023-03-23T02:19:07;35.50;;;18.00;;
19358;SDS011;9815;52.334;20.890;2023-03-23T02:24:51;33.97;;;17.13;;
19358;SDS011;9815;52.334;20.890;2023-03-23T02:27:28;35.07;;;17.63;;
19358;SDS011;9815;52.334;20.890;2023-03-23T02:30:20;34.63;;;17.13;;
19358;SDS011;9815;52.334;20.890;2023-03-23T02:33:11;34.20;;;17.43;;
19358;SDS011;9815;52.334;20.890;2023-03-23T02:35:52;34.37;;;15.77;;
19358;SDS011;9815;52.334;20.890;2023-03-23T02:38:26;33.03;;;16.67;;
19358;SDS011;9815;52.334;20.890;2023-03-23T02:40:57;32.23;;;16.53;;
19358;SDS011;9815;52.334;20.890;2023-03-23T02:43:27;29.57;;;16.53;;
19358;SDS011;9815;52.334;20.890;2023-03-23T02:45:57;41.40;;;17.77;;
19358;SDS011;9815;52.334;20.890;2023-03-23T02:48:28;35.97;;;17.17;;
19358;SDS011;9815;52.334;20.890;2023-03-23T02:50:56;31.53;;;16.23;;
19358;SDS011;9815;52.334;20.890;2023-03-23T02:53:25;31.80;;;16.70;;
19358;SDS011;9815;52.334;20.890;2023-03-23T02:55:54;31.47;;;16.87;;
19358;SDS011;9815;52.334;20.890;2023-03-23T02:58:27;34.40;;;16.60;;
19358;SDS011;9815;52.334;20.890;2023-03-23T03:00:55;32.20;;;16.63;;
19358;SDS011;9815;52.334;20.890;2023-03-23T03:03:25;35.13;;;16.03;;
19358;SDS011;9815;52.334;20.890;2023-03-23T03:05:58;31.53;;;15.57;;
19358;SDS011;9815;52.334;20.890;2023-03-23T03:08:36;32.90;;;16.23;;
19358;SDS011;9815;52.334;20.890;2023-03-23T03:11:11;31.07;;;16.00;;
19358;SDS011;9815;52.334;20.890;2023-03-23T03:13:43;33.90;;;16.60;;
19358;SDS011;9815;52.334;20.890;2023-03-23T03:16:16;35.27;;;16.27;;
19358;SDS011;9815;52.334;20.890;2023-03-23T03:18:54;31.00;;;15.97;;
19358;SDS011;9815;52.334;20.890;2023-03-23T03:21:25;29.83;;;15.67;;
19358;SDS011;9815;52.334;20.890;2023-03-23T03:23:58;34.83;;;16.30;;
19358;SDS011;9815;52.334;20.890;2023-03-23T03:26:28;29.67;;;15.83;;
19358;SDS011;9815;52.334;20.890;2023-03-23T03:29:08;33.20;;;16.03;;
19358;SDS011;9815;52.334;20.890;2023-03-23T03:31:41;32.80;;;15.07;;
19358;SDS011;9815;52.334;20.890;2023-03-23T03:34:13;30.77;;;15.63;;
19358;SDS011;9815;52.334;20.890;2023-03-23T03:36:44;32.10;;;16.70;;
19358;SDS011;9815;52.334;20.890;2023-03-23T03:39:13;31.50;;;15.23;;
19358;SDS011;9815;52.334;20.890;2023-03-23T03:41:42;29.57;;;15.53;;
19358;SDS011;9815;52.334;20.890;2023-03-23T03:44:10;32.43;;;16.13;;
19358;SDS011;9815;52.334;20.890;2023-03-23T03:46:37;32.73;;;16.10;;
19358;SDS011;9815;52.334;20.890;2023-03-23T03:49:06;33.77;;;16.80;;
19358;SDS011;9815;52.334;20.890;2023-03-23T03:51:38;30.90;;;15.63;;
19358;SDS011;9815;52.334;20.890;2023-03-23T03:54:11;30.47;;;15.87;;
19358;SDS011;9815;52.334;20.890;2023-03-23T03:56:37;34.97;;;16.30;;
19358;SDS011;9815;52.334;20.890;2023-03-23T03:59:24;30.00;;;16.37;;
19358;SDS011;9815;52.334;20.890;2023-03-23T04:02:17;36.53;;;16.63;;
19358;SDS011;9815;52.334;20.890;2023-03-23T04:04:49;37.53;;;17.13;;
19358;SDS011;9815;52.334;20.890;2023-03-23T04:07:19;31.93;;;14.47;;
19358;SDS011;9815;52.334;20.890;2023-03-23T04:09:46;42.87;;;15.77;;
19358;SDS011;9815;52.334;20.890;2023-03-23T04:12:17;30.30;;;14.90;;
19358;SDS011;9815;52.334;20.890;2023-03-23T04:14:57;36.97;;;16.60;;
19358;SDS011;9815;52.334;20.890;2023-03-23T04:17:32;32.10;;;16.33;;
19358;SDS011;9815;52.334;20.890;2023-03-23T04:19:59;31.67;;;15.57;;
19358;SDS011;9815;52.334;20.890;2023-03-23T04:22:33;35.27;;;16.00;;
19358;SDS011;9815;52.334;20.890;2023-03-23T04:25:01;33.20;;;15.33;;
19358;SDS011;9815;52.334;20.890;2023-03-23T04:27:34;30.13;;;15.23;;
19358;SDS011;9815;52.334;20.890;2023-03-23T04:30:03;33.07;;;15.27;;
19358;SDS011;9815;52.334;20.890;2023-03-23T04:32:44;29.77;;;15.40;;
19358;SDS011;9815;52.334;20.890;2023-03-23T04:35:19;31.10;;;15.20;;
19358;SDS011;9815;52.334;20.890;2023-03-23T04:37:54;32.37;;;16.27;;
19358;SDS011;9815;52.334;20.890;2023-03-23T04:40:22;28.13;;;15.10;;
19358;SDS011;9815;52.334;20.890;2023-03-23T04:43:02;35.53;;;14.93;;
19358;SDS011;9815;52.334;20.890;2023-03-23T04:45:52;28.90;;;14.70;;
19358;SDS011;9815;52.334;20.890;2023-03-23T04:48:23;31.17;;;14.57;;
19358;SDS011;9815;52.334;20.890;2023-03-23T04:51:05;26.13;;;14.07;;
19358;SDS011;9815;52.334;20.890;2023-03-23T04:53:34;27.80;;;13.73;;
19358;SDS011;9815;52.334;20.890;2023-03-23T04:56:01;31.37;;;14.90;;
19358;SDS011;9815;52.334;20.890;2023-03-23T04:58:35;29.10;;;14.50;;
19358;SDS011;9815;52.334;20.890;2023-03-23T05:01:20;30.30;;;14.53;;
19358;SDS011;9815;52.334;20.890;2023-03-23T05:04:08;30.83;;;14.97;;
19358;SDS011;9815;52.334;20.890;2023-03-23T05:06:36;32.30;;;14.40;;
19358;SDS011;9815;52.334;20.890;2023-03-23T05:09:13;26.63;;;13.27;;
19358;SDS011;9815;52.334;20.890;2023-03-23T05:11:41;31.03;;;13.87;;
19358;SDS011;9815;52.334;20.890;2023-03-23T05:14:09;28.37;;;13.93;;
19358;SDS011;9815;52.334;20.890;2023-03-23T05:16:37;33.23;;;14.73;;
19358;SDS011;9815;52.334;20.890;2023-03-23T05:19:06;27.57;;;13.17;;
19358;SDS011;9815;52.334;20.890;2023-03-23T05:21:35;25.80;;;13.33;;
19358;SDS011;9815;52.334;20.890;2023-03-23T05:24:03;26.67;;;12.93;;
19358;SDS011;9815;52.334;20.890;2023-03-23T05:26:33;29.00;;;14.73;;
19358;SDS011;9815;52.334;20.890;2023-03-23T05:29:09;30.33;;;14.67;;
19358;SDS011;9815;52.334;20.890;2023-03-23T05:31:47;31.43;;;14.77;;
19358;SDS011;9815;52.334;20.890;2023-03-23T05:34:14;28.80;;;14.40;;
19358;SDS011;9815;52.334;20.890;2023-03-23T05:36:49;34.50;;;13.50;;
19358;SDS011;9815;52.334;20.890;2023-03-23T05:39:28;31.90;;;14.57;;
19358;SDS011;9815;52.334;20.890;2023-03-23T05:42:26;27.93;;;12.80;;
19358;SDS011;9815;52.334;20.890;2023-03-23T05:45:07;26.43;;;12.50;;
19358;SDS011;9815;52.334;20.890;2023-03-23T05:47:36;23.53;;;12.07;;
19358;SDS011;9815;52.334;20.890;2023-03-23T05:50:08;26.40;;;12.63;;
19358;SDS011;9815;52.334;20.890;2023-03-23T05:52:37;21.23;;;12.30;;
19358;SDS011;9815;52.334;20.890;2023-03-23T05:55:07;26.67;;;12.60;;
19358;SDS011;9815;52.334;20.890;2023-03-23T05:57:39;25.93;;;12.50;;
19358;SDS011;9815;52.334;20.890;2023-03-23T06:00:16;26.60;;;12.87;;
19358;SDS011;9815;52.334;20.890;2023-03-23T06:02:54;25.93;;;12.37;;
19358;SDS011;9815;52.334;20.890;2023-03-23T06:05:32;27.43;;;12.17;;
19358;SDS011;9815;52.334;20.890;2023-03-23T06:07:59;25.10;;;12.03;;
19358;SDS011;9815;52.334;20.890;2023-03-23T06:10:26;19.53;;;11.13;;
19358;SDS011;9815;52.334;20.890;2023-03-23T06:13:01;21.27;;;11.63;;
19358;SDS011;9815;52.334;20.890;2023-03-23T06:15:54;20.63;;;11.10;;
19358;SDS011;9815;52.334;20.890;2023-03-23T06:18:44;23.10;;;11.70;;
19358;SDS011;9815;52.334;20.890;2023-03-23T06:21:24;21.03;;;10.83;;
19358;SDS011;9815;52.334;20.890;2023-03-23T06:23:54;24.87;;;11.50;;
19358;SDS011;9815;52.334;20.890;2023-03-23T06:26:27;21.70;;;10.57;;
19358;SDS011;9815;52.334;20.890;2023-03-23T06:29:01;21.17;;;10.83;;
19358;SDS011;9815;52.334;20.890;2023-03-23T06:31:30;21.50;;;11.03;;
19358;SDS011;9815;52.334;20.890;2023-03-23T06:34:01;24.43;;;11.60;;
19358;SDS011;9815;52.334;20.890;2023-03-23T06:36:46;22.00;;;10.63;;
19358;SDS011;9815;52.334;20.890;2023-03-23T06:39:17;23.63;;;11.10;;
19358;SDS011;9815;52.334;20.890;2023-03-23T06:42:14;20.17;;;10.57;;
19358;SDS011;9815;52.334;20.890;2023-03-23T06:44:48;22.97;;;10.97;;
19358;SDS011;9815;52.334;20.890;2023-03-23T06:47:15;24.87;;;13.07;;
19358;SDS011;9815;52.334;20.890;2023-03-23T06:49:47;28.83;;;12.07;;
19358;SDS011;9815;52.334;20.890;2023-03-23T06:52:20;24.10;;;12.50;;
19358;SDS011;9815;52.334;20.890;2023-03-23T06:54:48;25.37;;;11.73;;
19358;SDS011;9815;52.334;20.890;2023-03-23T06:57:17;24.57;;;11.63;;
19358;SDS011;9815;52.334;20.890;2023-03-23T06:59:48;21.77;;;10.30;;
19358;SDS011;9815;52.334;20.890;2023-03-23T07:02:15;20.20;;;9.57;;
19358;SDS011;9815;52.334;20.890;2023-03-23T07:04:45;19.40;;;10.03;;
19358;SDS011;9815;52.334;20.890;2023-03-23T07:07:19;19.57;;;9.83;;
19358;SDS011;9815;52.334;20.890;2023-03-23T07:10:25;18.07;;;8.63;;
19358;SDS011;9815;52.334;20.890;2023-03-23T07:12:52;16.37;;;8.77;;
19358;SDS011;9815;52.334;20.890;2023-03-23T07:15:25;17.20;;;8.53;;
19358;SDS011;9815;52.334;20.890;2023-03-23T07:17:54;15.47;;;8.50;;
19358;SDS011;9815;52.334;20.890;2023-03-23T07:20:37;15.13;;;7.77;;
19358;SDS011;9815;52.334;20.890;2023-03-23T07:23:26;16.40;;;7.90;;
19358;SDS011;9815;52.334;20.890;2023-03-23T07:26:02;15.13;;;8.00;;
19358;SDS011;9815;52.334;20.890;2023-03-23T07:28:38;15.77;;;8.00;;
19358;SDS011;9815;52.334;20.890;2023-03-23T07:31:34;22.40;;;8.40;;
19358;SDS011;9815;52.334;20.890;2023-03-23T07:34:03;16.03;;;7.70;;
19358;SDS011;9815;52.334;20.890;2023-03-23T07:36:49;15.23;;;6.87;;
19358;SDS011;9815;52.334;20.890;2023-03-23T07:39:16;16.20;;;7.03;;
19358;SDS011;9815;52.334;20.890;2023-03-23T07:41:46;13.17;;;7.30;;
19358;SDS011;9815;52.334;20.890;2023-03-23T07:44:19;15.90;;;6.50;;
19358;SDS011;9815;52.334;20.890;2023-03-23T07:46:50;18.90;;;7.93;;
19358;SDS011;9815;52.334;20.890;2023-03-23T07:49:26;16.87;;;8.07;;
19358;SDS011;9815;52.334;20.890;2023-03-23T07:52:05;14.40;;;7.20;;
19358;SDS011;9815;52.334;20.890;2023-03-23T07:54:32;13.47;;;6.60;;
19358;SDS011;9815;52.334;20.890;2023-03-23T07:57:03;11.70;;;6.13;;
19358;SDS011;9815;52.334;20.890;2023-03-23T07:59:36;12.73;;;6.80;;
19358;SDS011;9815;52.334;20.890;2023-03-23T08:02:04;13.97;;;7.07;;
19358;SDS011;9815;52.334;20.890;2023-03-23T08:04:46;11.03;;;6.13;;
19358;SDS011;9815;52.334;20.890;2023-03-23T08:07:43;14.20;;;6.57;;
19358;SDS011;9815;52.334;20.890;2023-03-23T08:10:28;18.47;;;5.87;;
19358;SDS011;9815;52.334;20.890;2023-03-23T08:13:23;11.27;;;5.50;;
19358;SDS011;9815;52.334;20.890;2023-03-23T08:16:09;14.63;;;6.10;;
19358;SDS011;9815;52.334;20.890;2023-03-23T08:18:58;11.43;;;5.70;;
19358;SDS011;9815;52.334;20.890;2023-03-23T08:21:52;10.97;;;5.87;;
19358;SDS011;9815;52.334;20.890;2023-03-23T08:24:40;12.57;;;5.90;;
19358;SDS011;9815;52.334;20.890;2023-03-23T08:27:37;10.97;;;5.63;;
19358;SDS011;9815;52.334;20.890;2023-03-23T08:30:18;10.63;;;6.23;;
19358;SDS011;9815;52.334;20.890;2023-03-23T08:33:10;12.67;;;6.00;;
19358;SDS011;9815;52.334;20.890;2023-03-23T08:35:55;11.43;;;5.80;;
19358;SDS011;9815;52.334;20.890;2023-03-23T08:38:40;12.60;;;6.07;;
19358;SDS011;9815;52.334;20.890;2023-03-23T08:41:31;8.07;;;5.27;;
19358;SDS011;9815;52.334;20.890;2023-03-23T08:44:10;10.87;;;6.10;;
19358;SDS011;9815;52.334;20.890;2023-03-23T08:47:03;13.77;;;6.33;;
19358;SDS011;9815;52.334;20.890;2023-03-23T08:49:51;14.10;;;5.80;;
19358;SDS011;9815;52.334;20.890;2023-03-23T08:52:46;11.60;;;5.40;;
19358;SDS011;9815;52.334;20.890;2023-03-23T08:55:20;14.07;;;5.73;;
19358;SDS011;9815;52.334;20.890;2023-03-23T08:58:01;8.60;;;5.00;;
19358;SDS011;9815;52.334;20.890;2023-03-23T09:00:52;11.67;;;6.00;;
19358;SDS011;9815;52.334;20.890;2023-03-23T09:03:55;11.00;;;5.60;;
19358;SDS011;9815;52.334;20.890;2023-03-23T09:06:25;11.13;;;5.20;;
19358;SDS011;9815;52.334;20.890;2023-03-23T09:08:54;11.50;;;5.80;;
19358;SDS011;9815;52.334;20.890;2023-03-23T09:11:21;11.80;;;5.77;;
19358;SDS011;9815;52.334;20.890;2023-03-23T09:13:48;11.07;;;5.30;;
19358;SDS011;9815;52.334;20.890;2023-03-23T09:16:15;10.23;;;5.57;;
19358;SDS011;9815;52.334;20.890;2023-03-23T09:18:42;10.90;;;5.07;;
19358;SDS011;9815;52.334;20.890;2023-03-23T09:21:09;10.27;;;5.50;;
19358;SDS011;9815;52.334;20.890;2023-03-23T09:23:37;9.57;;;5.20;;
19358;SDS011;9815;52.334;20.890;2023-03-23T09:26:08;9.73;;;4.80;;
19358;SDS011;9815;52.334;20.890;2023-03-23T09:28:35;10.30;;;5.20;;
19358;SDS011;9815;52.334;20.890;2023-03-23T09:31:02;8.83;;;5.17;;
19358;SDS011;9815;52.334;20.890;2023-03-23T09:33:30;8.93;;;5.03;;
19358;SDS011;9815;52.334;20.890;2023-03-23T09:35:59;10.17;;;5.00;;
19358;SDS011;9815;52.334;20.890;2023-03-23T09:38:27;11.53;;;5.03;;
19358;SDS011;9815;52.334;20.890;2023-03-23T09:40:59;10.30;;;5.03;;
19358;SDS011;9815;52.334;20.890;2023-03-23T09:43:46;8.47;;;4.70;;
19358;SDS011;9815;52.334;20.890;2023-03-23T09:46:32;10.90;;;5.10;;
19358;SDS011;9815;52.334;20.890;2023-03-23T09:49:08;11.00;;;4.87;;
19358;SDS011;9815;52.334;20.890;2023-03-23T09:51:42;8.87;;;4.30;;
19358;SDS011;9815;52.334;20.890;2023-03-23T09:54:14;9.47;;;4.67;;
19358;SDS011;9815;52.334;20.890;2023-03-23T09:56:46;9.43;;;4.40;;
19358;SDS011;9815;52.334;20.890;2023-03-23T09:59:18;17.37;;;4.90;;
19358;SDS011;9815;52.334;20.890;2023-03-23T10:01:50;8.40;;;4.13;;
19358;SDS011;9815;52.334;20.890;2023-03-23T10:04:27;7.77;;;4.00;;
19358;SDS011;9815;52.334;20.890;2023-03-23T10:07:00;9.43;;;4.00;;
19358;SDS011;9815;52.334;20.890;2023-03-23T10:09:36;9.67;;;4.20;;
19358;SDS011;9815;52.334;20.890;2023-03-23T10:12:06;6.57;;;3.67;;
19358;SDS011;9815;52.334;20.890;2023-03-23T10:14:46;7.53;;;3.00;;
19358;SDS011;9815;52.334;20.890;2023-03-23T10:17:22;5.53;;;2.93;;
19358;SDS011;9815;52.334;20.890;2023-03-23T10:19:54;7.37;;;2.73;;
19358;SDS011;9815;52.334;20.890;2023-03-23T10:22:34;4.93;;;2.93;;
19358;SDS011;9815;52.334;20.890;2023-03-23T10:25:08;3.80;;;2.50;;
19358;SDS011;9815;52.334;20.890;2023-03-23T10:27:43;6.77;;;2.93;;
19358;SDS011;9815;52.334;20.890;2023-03-23T10:30:17;6.00;;;2.70;;
19358;SDS011;9815;52.334;20.890;2023-03-23T10:32:49;6.97;;;3.00;;
19358;SDS011;9815;52.334;20.890;2023-03-23T10:35:21;5.27;;;2.87;;
19358;SDS011;9815;52.334;20.890;2023-03-23T10:37:54;8.00;;;2.87;;
19358;SDS011;9815;52.334;20.890;2023-03-23T10:40:27;5.93;;;3.20;;
19358;SDS011;9815;52.334;20.890;2023-03-23T10:42:56;4.67;;;2.67;;
19358;SDS011;9815;52.334;20.890;2023-03-23T10:45:26;3.77;;;2.60;;
19358;SDS011;9815;52.334;20.890;2023-03-23T10:48:05;6.00;;;2.40;;
19358;SDS011;9815;52.334;20.890;2023-03-23T10:50:37;5.90;;;2.53;;
19358;SDS011;9815;52.334;20.890;2023-03-23T10:53:10;5.53;;;2.30;;
19358;SDS011;9815;52.334;20.890;2023-03-23T10:55:42;6.03;;;2.83;;
19358;SDS011;9815;52.334;20.890;2023-03-23T10:58:10;5.27;;;2.80;;
19358;SDS011;9815;52.334;20.890;2023-03-23T11:00:49;5.83;;;3.13;;
19358;SDS011;9815;52.334;20.890;2023-03-23T11:03:24;4.50;;;2.73;;
19358;SDS011;9815;52.334;20.890;2023-03-23T11:05:58;6.90;;;3.30;;
19358;SDS011;9815;52.334;20.890;2023-03-23T11:08:29;7.10;;;3.10;;
19358;SDS011;9815;52.334;20.890;2023-03-23T11:10:59;7.45;;;2.90;;
19358;SDS011;9815;52.334;20.890;2023-03-23T11:13:38;5.30;;;2.40;;
19358;SDS011;9815;52.334;20.890;2023-03-23T11:16:09;6.32;;;2.60;;
19358;SDS011;9815;52.334;20.890;2023-03-23T11:18:48;8.35;;;2.83;;
19358;SDS011;9815;52.334;20.890;2023-03-23T11:21:15;3.90;;;2.65;;
19358;SDS011;9815;52.334;20.890;2023-03-23T11:23:43;3.17;;;2.20;;
19358;SDS011;9815;52.334;20.890;2023-03-23T11:26:16;8.02;;;2.72;;
19358;SDS011;9815;52.334;20.890;2023-03-23T11:28:46;5.35;;;2.63;;
19358;SDS011;9815;52.334;20.890;2023-03-23T11:31:21;6.72;;;2.65;;
19358;SDS011;9815;52.334;20.890;2023-03-23T11:33:51;8.02;;;3.20;;
19358;SDS011;9815;52.334;20.890;2023-03-23T11:36:20;3.72;;;2.55;;
19358;SDS011;9815;52.334;20.890;2023-03-23T11:38:52;6.05;;;2.92;;
19358;SDS011;9815;52.334;20.890;2023-03-23T11:41:22;9.43;;;3.07;;
19358;SDS011;9815;52.334;20.890;2023-03-23T11:43:51;7.17;;;2.80;;
19358;SDS011;9815;52.334;20.890;2023-03-23T11:46:23;5.33;;;2.70;;
19358;SDS011;9815;52.334;20.890;2023-03-23T11:48:58;5.40;;;2.47;;
19358;SDS011;9815;52.334;20.890;2023-03-23T11:51:30;4.83;;;2.53;;
19358;SDS011;9815;52.334;20.890;2023-03-23T11:54:02;4.00;;;2.33;;
19358;SDS011;9815;52.334;20.890;2023-03-23T11:56:47;6.90;;;3.00;;
19358;SDS011;9815;52.334;20.890;2023-03-23T11:59:15;5.85;;;2.50;;
19358;SDS011;9815;52.334;20.890;2023-03-23T12:01:48;3.88;;;2.40;;
19358;SDS011;9815;52.334;20.890;2023-03-23T12:04:32;6.90;;;3.33;;
19358;SDS011;9815;52.334;20.890;2023-03-23T12:07:11;4.88;;;2.40;;
19358;SDS011;9815;52.334;20.890;2023-03-23T12:09:48;4.22;;;2.38;;
19358;SDS011;9815;52.334;20.890;2023-03-23T12:12:22;3.10;;;2.05;;
19358;SDS011;9815;52.334;20.890;2023-03-23T12:14:56;3.08;;;1.98;;
19358;SDS011;9815;52.334;20.890;2023-03-23T12:17:35;5.25;;;2.10;;
19358;SDS011;9815;52.334;20.890;2023-03-23T12:20:16;5.60;;;2.58;;
19358;SDS011;9815;52.334;20.890;2023-03-23T12:22:52;5.70;;;2.58;;
19358;SDS011;9815;52.334;20.890;2023-03-23T12:28:29;5.63;;;2.25;;
19358;SDS011;9815;52.334;20.890;2023-03-23T12:31:07;3.60;;;2.17;;
19358;SDS011;9815;52.334;20.890;2023-03-23T12:33:45;5.25;;;1.92;;
19358;SDS011;9815;52.334;20.890;2023-03-23T12:36:23;4.63;;;2.00;;
19358;SDS011;9815;52.334;20.890;2023-03-23T12:39:08;3.67;;;2.28;;
19358;SDS011;9815;52.334;20.890;2023-03-23T12:41:45;4.18;;;2.15;;
19358;SDS011;9815;52.334;20.890;2023-03-23T12:44:19;5.53;;;2.40;;
19358;SDS011;9815;52.334;20.890;2023-03-23T12:46:58;5.30;;;2.50;;
19358;SDS011;9815;52.334;20.890;2023-03-23T12:49:50;6.57;;;2.20;;
19358;SDS011;9815;52.334;20.890;2023-03-23T12:52:23;6.15;;;2.40;;
19358;SDS011;9815;52.334;20.890;2023-03-23T12:54:54;6.70;;;2.63;;
19358;SDS011;9815;52.334;20.890;2023-03-23T12:57:28;4.43;;;2.47;;
19358;SDS011;9815;52.334;20.890;2023-03-23T13:00:03;4.05;;;2.15;;
19358;SDS011;9815;52.334;20.890;2023-03-23T13:02:38;4.15;;;2.40;;
19358;SDS011;9815;52.334;20.890;2023-03-23T13:05:11;5.28;;;2.65;;
19358;SDS011;9815;52.334;20.890;2023-03-23T13:07:53;5.40;;;2.53;;
19358;SDS011;9815;52.334;20.890;2023-03-23T13:10:27;4.00;;;2.40;;
19358;SDS011;9815;52.334;20.890;2023-03-23T13:12:57;7.57;;;3.00;;
19358;SDS011;9815;52.334;20.890;2023-03-23T13:15:27;4.47;;;2.22;;
19358;SDS011;9815;52.334;20.890;2023-03-23T13:18:03;5.07;;;2.20;;
19358;SDS011;9815;52.334;20.890;2023-03-23T13:23:34;8.03;;;2.67;;
19358;SDS011;9815;52.334;20.890;2023-03-23T13:26:05;4.07;;;2.10;;
19358;SDS011;9815;52.334;20.890;2023-03-23T13:28:47;4.93;;;2.07;;
19358;SDS011;9815;52.334;20.890;2023-03-23T13:31:20;5.03;;;1.93;;
19358;SDS011;9815;52.334;20.890;2023-03-23T13:33:51;18.87;;;2.83;;
19358;SDS011;9815;52.334;20.890;2023-03-23T13:36:26;9.03;;;2.20;;
19358;SDS011;9815;52.334;20.890;2023-03-23T13:38:55;4.80;;;2.17;;
19358;SDS011;9815;52.334;20.890;2023-03-23T13:41:24;3.07;;;1.80;;
19358;SDS011;9815;52.334;20.890;2023-03-23T13:43:52;8.10;;;2.10;;
19358;SDS011;9815;52.334;20.890;2023-03-23T13:46:31;5.63;;;1.97;;
19358;SDS011;9815;52.334;20.890;2023-03-23T13:49:05;4.47;;;1.90;;
19358;SDS011;9815;52.334;20.890;2023-03-23T13:51:52;3.57;;;1.90;;
19358;SDS011;9815;52.334;20.890;2023-03-23T13:54:29;4.37;;;2.00;;
19358;SDS011;9815;52.334;20.890;2023-03-23T13:56:58;5.13;;;2.20;;
19358;SDS011;9815;52.334;20.890;2023-03-23T13:59:30;4.50;;;2.17;;
19358;SDS011;9815;52.334;20.890;2023-03-23T14:05:09;4.60;;;1.97;;
19358;SDS011;9815;52.334;20.890;2023-03-23T14:07:56;4.70;;;2.40;;
19358;SDS011;9815;52.334;20.890;2023-03-23T14:10:31;4.47;;;2.30;;
19358;SDS011;9815;52.334;20.890;2023-03-23T14:13:00;6.63;;;2.43;;
19358;SDS011;9815;52.334;20.890;2023-03-23T14:15:29;6.23;;;2.63;;
19358;SDS011;9815;52.334;20.890;2023-03-23T14:17:57;7.27;;;2.40;;
19358;SDS011;9815;52.334;20.890;2023-03-23T14:20:30;5.33;;;2.30;;
19358;SDS011;9815;52.334;20.890;2023-03-23T14:23:00;5.53;;;3.00;;
19358;SDS011;9815;52.334;20.890;2023-03-23T14:25:28;5.73;;;3.10;;
19358;SDS011;9815;52.334;20.890;2023-03-23T14:27:57;5.40;;;3.10;;
19358;SDS011;9815;52.334;20.890;2023-03-23T14:30:25;6.77;;;3.20;;
19358;SDS011;9815;52.334;20.890;2023-03-23T14:33:03;5.83;;;3.07;;
19358;SDS011;9815;52.334;20.890;2023-03-23T14:35:33;6.30;;;3.30;;
19358;SDS011;9815;52.334;20.890;2023-03-23T14:38:03;9.03;;;4.47;;
19358;SDS011;9815;52.334;20.890;2023-03-23T14:40:30;9.90;;;5.07;;
19358;SDS011;9815;52.334;20.890;2023-03-23T14:42:57;7.27;;;4.00;;
19358;SDS011;9815;52.334;20.890;2023-03-23T14:45:26;9.50;;;4.73;;
19358;SDS011;9815;52.334;20.890;2023-03-23T14:47:53;9.23;;;4.20;;
19358;SDS011;9815;52.334;20.890;2023-03-23T14:50:25;6.10;;;3.70;;
19358;SDS011;9815;52.334;20.890;2023-03-23T14:52:59;8.20;;;4.00;;
19358;SDS011;9815;52.334;20.890;2023-03-23T14:55:30;7.63;;;3.40;;
19358;SDS011;9815;52.334;20.890;2023-03-23T14:58:05;10.63;;;4.77;;
19358;SDS011;9815;52.334;20.890;2023-03-23T15:00:34;13.87;;;5.83;;
19358;SDS011;9815;52.334;20.890;2023-03-23T15:03:04;10.93;;;5.30;;
19358;SDS011;9815;52.334;20.890;2023-03-23T15:05:37;11.73;;;5.70;;
19358;SDS011;9815;52.334;20.890;2023-03-23T15:08:11;13.07;;;4.57;;
19358;SDS011;9815;52.334;20.890;2023-03-23T15:10:42;8.53;;;3.40;;
19358;SDS011;9815;52.334;20.890;2023-03-23T15:13:18;10.00;;;4.60;;
19358;SDS011;9815;52.334;20.890;2023-03-23T15:15:45;12.20;;;5.23;;
19358;SDS011;9815;52.334;20.890;2023-03-23T15:18:19;7.67;;;4.50;;
19358;SDS011;9815;52.334;20.890;2023-03-23T15:20:56;7.63;;;3.70;;
19358;SDS011;9815;52.334;20.890;2023-03-23T15:23:26;11.67;;;4.63;;
19358;SDS011;9815;52.334;20.890;2023-03-23T15:25:56;7.90;;;3.70;;